sensor_id;sensor_type;location;lat;lon;timestamp;temperature;humidity
35246;DHT22;21379;50.962;6.960;2023-06-10T00:01:22;20.00;99.90
35246;DHT22;21379;50.962;6.960;2023-06-10T00:03:50;19.90;99.90
35246;DHT22;21379;50.962;6.960;2023-06-10T00:06:17;19.80;99.90
35246;DHT22;21379;50.962;6.960;2023-06-10T00:08:45;19.70;99.90
35246;DHT22;21379;50.962;6.960;2023-06-10T00:11:12;19.70;99.90
35246;DHT22;21379;50.962;6.960;2023-06-10T00:13:39;19.70;99.90
35246;DHT22;21379;50.962;6.960;2023-06-10T00:16:06;19.70;99.90
35246;DHT22;21379;50.962;6.960;2023-06-10T00:18:33;19.60;99.90
35246;DHT22;21379;50.962;6.960;2023-06-10T00:21:02;19.60;99.90
35246;DHT22;21379;50.962;6.960;2023-06-10T00:23:30;19.50;99.90
35246;DHT22;21379;50.962;6.960;2023-06-10T00:25:59;19.50;99.90
35246;DHT22;21379;50.962;6.960;2023-06-10T00:28:26;19.50;99.90
35246;DHT22;21379;50.962;6.960;2023-06-10T00:30:55;19.40;99.90
35246;DHT22;21379;50.962;6.960;2023-06-10T00:33:23;19.30;99.90
35246;DHT22;21379;50.962;6.960;2023-06-10T00:35:50;19.30;99.90
35246;DHT22;21379;50.962;6.960;2023-06-10T00:38:16;19.30;99.90
35246;DHT22;21379;50.962;6.960;2023-06-10T00:40:44;19.20;99.90
35246;DHT22;21379;50.962;6.960;2023-06-10T00:43:12;19.20;99.90
35246;DHT22;21379;50.962;6.960;2023-06-10T00:45:39;19.10;99.90
35246;DHT22;21379;50.962;6.960;2023-06-10T00:48:07;19.10;99.90
35246;DHT22;21379;50.962;6.960;2023-06-10T00:50:34;19.10;99.90
35246;DHT22;21379;50.962;6.960;2023-06-10T00:53:04;19.10;99.90
35246;DHT22;21379;50.962;6.960;2023-06-10T00:55:32;19.00;99.90
35246;DHT22;21379;50.962;6.960;2023-06-10T00:57:59;19.00;99.90
35246;DHT22;21379;50.962;6.960;2023-06-10T01:00:28;19.00;99.90
35246;DHT22;21379;50.962;6.960;2023-06-10T01:02:54;18.90;99.90
35246;DHT22;21379;50.962;6.960;2023-06-10T01:05:23;18.90;99.90
35246;DHT22;21379;50.962;6.960;2023-06-10T01:07:56;18.80;99.90
35246;DHT22;21379;50.962;6.960;2023-06-10T01:10:33;18.80;99.90
35246;DHT22;21379;50.962;6.960;2023-06-10T01:13:03;18.80;99.90
35246;DHT22;21379;50.962;6.960;2023-06-10T01:15:34;18.80;99.90
35246;DHT22;21379;50.962;6.960;2023-06-10T01:18:03;18.70;99.90
35246;DHT22;21379;50.962;6.960;2023-06-10T01:20:31;18.70;99.90
35246;DHT22;21379;50.962;6.960;2023-06-10T01:23:00;18.70;99.90
35246;DHT22;21379;50.962;6.960;2023-06-10T01:25:29;18.70;99.90
35246;DHT22;21379;50.962;6.960;2023-06-10T01:28:02;18.70;99.90
35246;DHT22;21379;50.962;6.960;2023-06-10T01:30:36;18.60;99.90
35246;DHT22;21379;50.962;6.960;2023-06-10T01:33:07;18.60;99.90
35246;DHT22;21379;50.962;6.960;2023-06-10T01:35:37;18.60;99.90
35246;DHT22;21379;50.962;6.960;2023-06-10T01:38:06;18.60;99.90
35246;DHT22;21379;50.962;6.960;2023-06-10T01:40:34;18.50;99.90
35246;DHT22;21379;50.962;6.960;2023-06-10T01:43:01;18.50;99.90
35246;DHT22;21379;50.962;6.960;2023-06-10T01:45:28;18.50;99.90
35246;DHT22;21379;50.962;6.960;2023-06-10T01:47:55;18.40;99.90
35246;DHT22;21379;50.962;6.960;2023-06-10T01:50:22;18.40;99.90
35246;DHT22;21379;50.962;6.960;2023-06-10T01:52:49;18.30;99.90
35246;DHT22;21379;50.962;6.960;2023-06-10T01:55:17;18.20;99.90
35246;DHT22;21379;50.962;6.960;2023-06-10T01:57:44;18.30;99.90
35246;DHT22;21379;50.962;6.960;2023-06-10T02:00:12;18.30;99.90
35246;DHT22;21379;50.962;6.960;2023-06-10T02:02:44;18.20;99.90
35246;DHT22;21379;50.962;6.960;2023-06-10T02:05:11;18.20;99.90
35246;DHT22;21379;50.962;6.960;2023-06-10T02:07:38;18.10;99.90
35246;DHT22;21379;50.962;6.960;2023-06-10T02:10:06;18.20;99.90
35246;DHT22;21379;50.962;6.960;2023-06-10T02:12:35;18.20;99.90
35246;DHT22;21379;50.962;6.960;2023-06-10T02:15:02;18.20;99.90
35246;DHT22;21379;50.962;6.960;2023-06-10T02:17:29;18.10;99.90
35246;DHT22;21379;50.962;6.960;2023-06-10T02:19:56;18.10;99.90
35246;DHT22;21379;50.962;6.960;2023-06-10T02:22:25;18.10;99.90
35246;DHT22;21379;50.962;6.960;2023-06-10T02:24:52;18.10;99.90
35246;DHT22;21379;50.962;6.960;2023-06-10T02:27:19;18.00;99.90
35246;DHT22;21379;50.962;6.960;2023-06-10T02:29:48;18.00;99.90
35246;DHT22;21379;50.962;6.960;2023-06-10T02:32:15;18.00;99.90
35246;DHT22;21379;50.962;6.960;2023-06-10T02:34:42;17.90;99.90
35246;DHT22;21379;50.962;6.960;2023-06-10T02:37:09;17.80;99.90
35246;DHT22;21379;50.962;6.960;2023-06-10T02:39:36;17.80;99.90
35246;DHT22;21379;50.962;6.960;2023-06-10T02:42:08;17.80;99.90
35246;DHT22;21379;50.962;6.960;2023-06-10T02:44:35;17.70;99.90
35246;DHT22;21379;50.962;6.960;2023-06-10T02:47:05;17.70;99.90
35246;DHT22;21379;50.962;6.960;2023-06-10T02:49:33;17.70;99.90
35246;DHT22;21379;50.962;6.960;2023-06-10T02:52:01;17.60;99.90
35246;DHT22;21379;50.962;6.960;2023-06-10T02:54:29;17.60;99.90
35246;DHT22;21379;50.962;6.960;2023-06-10T02:56:56;17.60;99.90
35246;DHT22;21379;50.962;6.960;2023-06-10T02:59:26;17.60;99.90
35246;DHT22;21379;50.962;6.960;2023-06-10T03:01:54;17.60;99.90
35246;DHT22;21379;50.962;6.960;2023-06-10T03:04:24;17.50;99.90
35246;DHT22;21379;50.962;6.960;2023-06-10T03:07:00;17.50;99.90
35246;DHT22;21379;50.962;6.960;2023-06-10T03:09:31;17.50;99.90
35246;DHT22;21379;50.962;6.960;2023-06-10T03:12:00;17.40;99.90
35246;DHT22;21379;50.962;6.960;2023-06-10T03:14:31;17.40;99.90
35246;DHT22;21379;50.962;6.960;2023-06-10T03:16:58;17.40;99.90
35246;DHT22;21379;50.962;6.960;2023-06-10T03:19:26;17.30;99.90
35246;DHT22;21379;50.962;6.960;2023-06-10T03:22:07;17.30;99.90
35246;DHT22;21379;50.962;6.960;2023-06-10T03:24:37;17.30;99.90
35246;DHT22;21379;50.962;6.960;2023-06-10T03:27:07;17.20;99.90
35246;DHT22;21379;50.962;6.960;2023-06-10T03:29:36;17.20;99.90
35246;DHT22;21379;50.962;6.960;2023-06-10T03:32:05;17.20;99.90
35246;DHT22;21379;50.962;6.960;2023-06-10T03:34:34;17.20;99.90
35246;DHT22;21379;50.962;6.960;2023-06-10T03:37:02;17.20;99.90
35246;DHT22;21379;50.962;6.960;2023-06-10T03:39:29;17.20;99.90
35246;DHT22;21379;50.962;6.960;2023-06-10T03:41:58;17.20;99.90
35246;DHT22;21379;50.962;6.960;2023-06-10T03:44:27;17.20;99.90
35246;DHT22;21379;50.962;6.960;2023-06-10T03:46:54;17.20;99.90
35246;DHT22;21379;50.962;6.960;2023-06-10T03:49:21;17.10;99.90
35246;DHT22;21379;50.962;6.960;2023-06-10T03:51:57;17.10;99.90
35246;DHT22;21379;50.962;6.960;2023-06-10T03:54:25;17.10;99.90
35246;DHT22;21379;50.962;6.960;2023-06-10T03:56:52;17.10;99.90
35246;DHT22;21379;50.962;6.960;2023-06-10T03:59:19;17.00;99.90
35246;DHT22;21379;50.962;6.960;2023-06-10T04:01:46;17.00;99.90
35246;DHT22;21379;50.962;6.960;2023-06-10T04:04:14;17.00;99.90
35246;DHT22;21379;50.962;6.960;2023-06-10T04:06:42;17.00;99.90
35246;DHT22;21379;50.962;6.960;2023-06-10T04:09:11;17.10;99.90
35246;DHT22;21379;50.962;6.960;2023-06-10T04:11:39;17.10;99.90
35246;DHT22;21379;50.962;6.960;2023-06-10T04:14:06;17.10;99.90
35246;DHT22;21379;50.962;6.960;2023-06-10T04:16:36;17.20;99.90
35246;DHT22;21379;50.962;6.960;2023-06-10T04:19:04;17.20;99.90
35246;DHT22;21379;50.962;6.960;2023-06-10T04:21:31;17.20;99.90
35246;DHT22;21379;50.962;6.960;2023-06-10T04:23:58;17.20;99.90
35246;DHT22;21379;50.962;6.960;2023-06-10T04:26:27;17.20;99.90
35246;DHT22;21379;50.962;6.960;2023-06-10T04:28:54;17.20;99.90
35246;DHT22;21379;50.962;6.960;2023-06-10T04:31:22;17.20;99.90
35246;DHT22;21379;50.962;6.960;2023-06-10T04:33:49;17.20;99.90
35246;DHT22;21379;50.962;6.960;2023-06-10T04:36:16;17.30;99.90
35246;DHT22;21379;50.962;6.960;2023-06-10T04:38:43;17.30;99.90
35246;DHT22;21379;50.962;6.960;2023-06-10T04:41:10;17.40;99.90
35246;DHT22;21379;50.962;6.960;2023-06-10T04:43:38;17.40;99.90
35246;DHT22;21379;50.962;6.960;2023-06-10T04:46:05;17.40;99.90
35246;DHT22;21379;50.962;6.960;2023-06-10T04:48:32;17.50;99.90
35246;DHT22;21379;50.962;6.960;2023-06-10T04:51:01;17.50;99.90
35246;DHT22;21379;50.962;6.960;2023-06-10T04:53:28;17.60;99.90
35246;DHT22;21379;50.962;6.960;2023-06-10T04:55:56;17.70;99.90
35246;DHT22;21379;50.962;6.960;2023-06-10T04:58:24;17.70;99.90
35246;DHT22;21379;50.962;6.960;2023-06-10T05:00:52;17.80;99.90
35246;DHT22;21379;50.962;6.960;2023-06-10T05:03:19;17.90;99.90
35246;DHT22;21379;50.962;6.960;2023-06-10T05:05:46;18.00;99.90
35246;DHT22;21379;50.962;6.960;2023-06-10T05:08:12;18.10;99.90
35246;DHT22;21379;50.962;6.960;2023-06-10T05:10:39;18.20;99.90
35246;DHT22;21379;50.962;6.960;2023-06-10T05:13:06;18.20;99.90
35246;DHT22;21379;50.962;6.960;2023-06-10T05:15:33;18.30;99.90
35246;DHT22;21379;50.962;6.960;2023-06-10T05:18:01;18.40;99.90
35246;DHT22;21379;50.962;6.960;2023-06-10T05:20:29;18.60;99.90
35246;DHT22;21379;50.962;6.960;2023-06-10T05:22:56;18.60;99.90
35246;DHT22;21379;50.962;6.960;2023-06-10T05:25:22;18.80;99.90
35246;DHT22;21379;50.962;6.960;2023-06-10T05:27:49;18.90;99.90
35246;DHT22;21379;50.962;6.960;2023-06-10T05:30:16;19.00;99.90
35246;DHT22;21379;50.962;6.960;2023-06-10T05:32:44;19.10;99.90
35246;DHT22;21379;50.962;6.960;2023-06-10T05:35:12;19.20;99.90
35246;DHT22;21379;50.962;6.960;2023-06-10T05:37:39;19.30;99.90
35246;DHT22;21379;50.962;6.960;2023-06-10T05:40:07;19.40;99.90
35246;DHT22;21379;50.962;6.960;2023-06-10T05:42:34;19.50;99.90
35246;DHT22;21379;50.962;6.960;2023-06-10T05:45:01;19.70;99.90
35246;DHT22;21379;50.962;6.960;2023-06-10T05:47:28;19.70;99.90
35246;DHT22;21379;50.962;6.960;2023-06-10T05:49:55;19.80;99.90
35246;DHT22;21379;50.962;6.960;2023-06-10T05:52:24;19.90;99.90
35246;DHT22;21379;50.962;6.960;2023-06-10T05:54:51;20.00;99.90
35246;DHT22;21379;50.962;6.960;2023-06-10T05:57:19;20.10;99.90
35246;DHT22;21379;50.962;6.960;2023-06-10T05:59:46;20.20;99.90
35246;DHT22;21379;50.962;6.960;2023-06-10T06:02:13;20.40;99.90
35246;DHT22;21379;50.962;6.960;2023-06-10T06:04:40;20.50;99.90
35246;DHT22;21379;50.962;6.960;2023-06-10T06:07:07;20.60;99.90
35246;DHT22;21379;50.962;6.960;2023-06-10T06:09:35;20.70;99.90
35246;DHT22;21379;50.962;6.960;2023-06-10T06:12:03;20.80;99.90
35246;DHT22;21379;50.962;6.960;2023-06-10T06:14:31;20.90;99.90
35246;DHT22;21379;50.962;6.960;2023-06-10T06:16:58;21.10;99.90
35246;DHT22;21379;50.962;6.960;2023-06-10T06:19:25;21.20;99.90
35246;DHT22;21379;50.962;6.960;2023-06-10T06:21:52;21.20;99.90
35246;DHT22;21379;50.962;6.960;2023-06-10T06:24:19;21.30;99.90
35246;DHT22;21379;50.962;6.960;2023-06-10T06:26:47;21.40;99.90
35246;DHT22;21379;50.962;6.960;2023-06-10T06:29:14;21.40;99.90
35246;DHT22;21379;50.962;6.960;2023-06-10T06:31:41;21.50;99.90
35246;DHT22;21379;50.962;6.960;2023-06-10T06:34:08;21.60;99.90
35246;DHT22;21379;50.962;6.960;2023-06-10T06:36:35;21.70;99.90
35246;DHT22;21379;50.962;6.960;2023-06-10T06:39:02;21.80;99.90
35246;DHT22;21379;50.962;6.960;2023-06-10T06:41:29;22.00;99.90
35246;DHT22;21379;50.962;6.960;2023-06-10T06:43:57;22.10;99.90
35246;DHT22;21379;50.962;6.960;2023-06-10T06:46:29;22.30;99.90
35246;DHT22;21379;50.962;6.960;2023-06-10T06:48:56;22.40;99.90
35246;DHT22;21379;50.962;6.960;2023-06-10T06:51:23;22.50;99.90
35246;DHT22;21379;50.962;6.960;2023-06-10T06:53:50;22.60;99.90
35246;DHT22;21379;50.962;6.960;2023-06-10T06:56:19;22.70;99.90
35246;DHT22;21379;50.962;6.960;2023-06-10T06:58:47;22.90;99.90
35246;DHT22;21379;50.962;6.960;2023-06-10T07:01:16;23.00;99.90
35246;DHT22;21379;50.962;6.960;2023-06-10T07:03:43;23.10;99.90
35246;DHT22;21379;50.962;6.960;2023-06-10T07:06:10;23.20;99.90
35246;DHT22;21379;50.962;6.960;2023-06-10T07:08:36;23.30;99.90
35246;DHT22;21379;50.962;6.960;2023-06-10T07:11:03;23.40;99.90
35246;DHT22;21379;50.962;6.960;2023-06-10T07:13:30;23.50;99.70
35246;DHT22;21379;50.962;6.960;2023-06-10T07:15:57;23.70;99.90
35246;DHT22;21379;50.962;6.960;2023-06-10T07:18:25;23.90;99.30
35246;DHT22;21379;50.962;6.960;2023-06-10T07:20:52;23.80;98.60
35246;DHT22;21379;50.962;6.960;2023-06-10T07:23:19;23.90;98.00
35246;DHT22;21379;50.962;6.960;2023-06-10T07:25:46;24.10;98.80
35246;DHT22;21379;50.962;6.960;2023-06-10T07:28:13;24.30;98.40
35246;DHT22;21379;50.962;6.960;2023-06-10T07:30:40;24.40;98.00
35246;DHT22;21379;50.962;6.960;2023-06-10T07:33:07;24.30;98.30
35246;DHT22;21379;50.962;6.960;2023-06-10T07:35:37;24.30;97.90
35246;DHT22;21379;50.962;6.960;2023-06-10T07:38:04;24.40;96.90
35246;DHT22;21379;50.962;6.960;2023-06-10T07:40:31;24.60;97.50
35246;DHT22;21379;50.962;6.960;2023-06-10T07:42:58;24.80;97.50
35246;DHT22;21379;50.962;6.960;2023-06-10T07:45:25;24.90;97.10
35246;DHT22;21379;50.962;6.960;2023-06-10T07:47:52;24.90;96.90
35246;DHT22;21379;50.962;6.960;2023-06-10T07:50:19;24.90;97.10
35246;DHT22;21379;50.962;6.960;2023-06-10T07:52:47;25.00;96.40
35246;DHT22;21379;50.962;6.960;2023-06-10T07:55:14;25.20;96.40
35246;DHT22;21379;50.962;6.960;2023-06-10T07:57:41;25.20;96.70
35246;DHT22;21379;50.962;6.960;2023-06-10T08:00:09;25.40;97.20
35246;DHT22;21379;50.962;6.960;2023-06-10T08:02:38;25.50;97.20
35246;DHT22;21379;50.962;6.960;2023-06-10T08:05:06;25.60;96.30
35246;DHT22;21379;50.962;6.960;2023-06-10T08:07:33;25.70;95.90
35246;DHT22;21379;50.962;6.960;2023-06-10T08:10:01;25.70;96.10
35246;DHT22;21379;50.962;6.960;2023-06-10T08:12:28;25.60;95.40
35246;DHT22;21379;50.962;6.960;2023-06-10T08:14:55;25.60;95.90
35246;DHT22;21379;50.962;6.960;2023-06-10T08:17:22;25.70;95.10
35246;DHT22;21379;50.962;6.960;2023-06-10T08:19:49;25.80;96.30
35246;DHT22;21379;50.962;6.960;2023-06-10T08:22:16;26.10;96.10
35246;DHT22;21379;50.962;6.960;2023-06-10T08:24:43;26.00;94.70
35246;DHT22;21379;50.962;6.960;2023-06-10T08:27:11;26.20;95.40
35246;DHT22;21379;50.962;6.960;2023-06-10T08:29:38;26.20;95.20
35246;DHT22;21379;50.962;6.960;2023-06-10T08:32:06;26.40;94.30
35246;DHT22;21379;50.962;6.960;2023-06-10T08:34:33;26.80;94.70
35246;DHT22;21379;50.962;6.960;2023-06-10T08:37:01;26.80;94.50
35246;DHT22;21379;50.962;6.960;2023-06-10T08:39:27;26.90;94.30
35246;DHT22;21379;50.962;6.960;2023-06-10T08:42:04;26.90;95.00
35246;DHT22;21379;50.962;6.960;2023-06-10T08:44:38;26.90;94.90
35246;DHT22;21379;50.962;6.960;2023-06-10T08:47:10;27.00;94.70
35246;DHT22;21379;50.962;6.960;2023-06-10T08:49:43;27.10;93.10
35246;DHT22;21379;50.962;6.960;2023-06-10T08:52:13;27.00;93.60
35246;DHT22;21379;50.962;6.960;2023-06-10T08:54:42;27.10;93.60
35246;DHT22;21379;50.962;6.960;2023-06-10T08:57:10;27.40;93.80
35246;DHT22;21379;50.962;6.960;2023-06-10T08:59:38;27.60;94.00
35246;DHT22;21379;50.962;6.960;2023-06-10T09:02:07;28.30;93.30
35246;DHT22;21379;50.962;6.960;2023-06-10T09:04:36;28.70;92.90
35246;DHT22;21379;50.962;6.960;2023-06-10T09:07:04;29.00;93.60
35246;DHT22;21379;50.962;6.960;2023-06-10T09:09:32;29.10;93.20
35246;DHT22;21379;50.962;6.960;2023-06-10T09:12:01;29.40;93.90
35246;DHT22;21379;50.962;6.960;2023-06-10T09:14:28;29.70;91.80
35246;DHT22;21379;50.962;6.960;2023-06-10T09:16:57;30.00;91.60
35246;DHT22;21379;50.962;6.960;2023-06-10T09:19:24;29.80;90.30
35246;DHT22;21379;50.962;6.960;2023-06-10T09:21:51;29.40;91.10
35246;DHT22;21379;50.962;6.960;2023-06-10T09:24:18;30.20;91.10
35246;DHT22;21379;50.962;6.960;2023-06-10T09:26:45;30.20;91.10
35246;DHT22;21379;50.962;6.960;2023-06-10T09:29:12;31.10;90.90
35246;DHT22;21379;50.962;6.960;2023-06-10T09:31:40;30.80;90.70
35246;DHT22;21379;50.962;6.960;2023-06-10T09:34:10;30.80;91.70
35246;DHT22;21379;50.962;6.960;2023-06-10T09:36:38;30.70;87.60
35246;DHT22;21379;50.962;6.960;2023-06-10T09:39:05;31.30;86.20
35246;DHT22;21379;50.962;6.960;2023-06-10T09:41:40;31.50;89.20
35246;DHT22;21379;50.962;6.960;2023-06-10T09:44:11;31.90;87.40
35246;DHT22;21379;50.962;6.960;2023-06-10T09:46:38;32.20;90.00
35246;DHT22;21379;50.962;6.960;2023-06-10T09:49:05;32.20;87.50
35246;DHT22;21379;50.962;6.960;2023-06-10T09:51:34;32.50;87.80
35246;DHT22;21379;50.962;6.960;2023-06-10T09:54:02;32.10;87.10
35246;DHT22;21379;50.962;6.960;2023-06-10T09:56:33;32.30;86.90
35246;DHT22;21379;50.962;6.960;2023-06-10T09:59:01;32.30;87.10
35246;DHT22;21379;50.962;6.960;2023-06-10T10:01:28;32.80;86.50
35246;DHT22;21379;50.962;6.960;2023-06-10T10:03:55;33.60;84.30
35246;DHT22;21379;50.962;6.960;2023-06-10T10:06:21;32.10;81.90
35246;DHT22;21379;50.962;6.960;2023-06-10T10:08:50;32.70;84.90
35246;DHT22;21379;50.962;6.960;2023-06-10T10:11:18;32.90;82.80
35246;DHT22;21379;50.962;6.960;2023-06-10T10:13:48;33.10;83.30
35246;DHT22;21379;50.962;6.960;2023-06-10T10:16:17;33.00;83.60
35246;DHT22;21379;50.962;6.960;2023-06-10T10:18:49;32.80;84.00
35246;DHT22;21379;50.962;6.960;2023-06-10T10:21:22;33.20;85.40
35246;DHT22;21379;50.962;6.960;2023-06-10T10:23:53;34.10;85.00
35246;DHT22;21379;50.962;6.960;2023-06-10T10:26:26;33.00;83.60
35246;DHT22;21379;50.962;6.960;2023-06-10T10:28:58;33.70;82.30
35246;DHT22;21379;50.962;6.960;2023-06-10T10:31:29;32.90;78.40
35246;DHT22;21379;50.962;6.960;2023-06-10T10:34:00;32.90;82.70
35246;DHT22;21379;50.962;6.960;2023-06-10T10:36:27;33.20;80.20
35246;DHT22;21379;50.962;6.960;2023-06-10T10:38:56;33.90;82.20
35246;DHT22;21379;50.962;6.960;2023-06-10T10:41:24;33.70;79.40
35246;DHT22;21379;50.962;6.960;2023-06-10T10:43:53;33.00;78.90
35246;DHT22;21379;50.962;6.960;2023-06-10T10:46:20;33.10;77.40
35246;DHT22;21379;50.962;6.960;2023-06-10T10:48:52;33.60;78.80
35246;DHT22;21379;50.962;6.960;2023-06-10T10:51:20;32.60;76.20
35246;DHT22;21379;50.962;6.960;2023-06-10T10:54:10;33.30;81.60
35246;DHT22;21379;50.962;6.960;2023-06-10T10:56:38;33.00;76.40
35246;DHT22;21379;50.962;6.960;2023-06-10T10:59:05;33.90;78.00
35246;DHT22;21379;50.962;6.960;2023-06-10T11:01:42;33.20;78.10
35246;DHT22;21379;50.962;6.960;2023-06-10T11:04:12;34.30;77.80
35246;DHT22;21379;50.962;6.960;2023-06-10T11:06:39;34.00;78.90
35246;DHT22;21379;50.962;6.960;2023-06-10T11:09:28;34.20;75.20
35246;DHT22;21379;50.962;6.960;2023-06-10T11:11:57;33.50;70.40
35246;DHT22;21379;50.962;6.960;2023-06-10T11:14:28;33.60;73.00
35246;DHT22;21379;50.962;6.960;2023-06-10T11:16:57;33.30;73.20
35246;DHT22;21379;50.962;6.960;2023-06-10T11:19:34;33.20;72.80
35246;DHT22;21379;50.962;6.960;2023-06-10T11:22:03;33.40;73.50
35246;DHT22;21379;50.962;6.960;2023-06-10T11:24:32;33.50;73.00
35246;DHT22;21379;50.962;6.960;2023-06-10T11:27:18;33.00;72.40
35246;DHT22;21379;50.962;6.960;2023-06-10T11:30:19;33.40;77.30
35246;DHT22;21379;50.962;6.960;2023-06-10T11:32:50;33.00;73.10
35246;DHT22;21379;50.962;6.960;2023-06-10T11:35:19;32.20;74.10
35246;DHT22;21379;50.962;6.960;2023-06-10T11:37:47;32.10;76.20
35246;DHT22;21379;50.962;6.960;2023-06-10T11:40:16;31.70;75.40
35246;DHT22;21379;50.962;6.960;2023-06-10T11:42:43;30.80;72.40
35246;DHT22;21379;50.962;6.960;2023-06-10T11:45:15;30.30;70.70
35246;DHT22;21379;50.962;6.960;2023-06-10T11:47:56;30.50;78.40
35246;DHT22;21379;50.962;6.960;2023-06-10T11:50:28;30.00;73.30
35246;DHT22;21379;50.962;6.960;2023-06-10T11:52:55;30.00;76.20
35246;DHT22;21379;50.962;6.960;2023-06-10T11:55:25;29.80;74.90
35246;DHT22;21379;50.962;6.960;2023-06-10T11:57:52;29.70;77.00
35246;DHT22;21379;50.962;6.960;2023-06-10T12:00:23;29.60;76.00
35246;DHT22;21379;50.962;6.960;2023-06-10T12:02:56;29.30;74.30
35246;DHT22;21379;50.962;6.960;2023-06-10T12:05:23;29.00;72.50
35246;DHT22;21379;50.962;6.960;2023-06-10T12:08:08;29.00;73.50
35246;DHT22;21379;50.962;6.960;2023-06-10T12:10:40;28.90;73.50
35246;DHT22;21379;50.962;6.960;2023-06-10T12:13:08;28.80;73.90
35246;DHT22;21379;50.962;6.960;2023-06-10T12:15:35;28.60;75.70
35246;DHT22;21379;50.962;6.960;2023-06-10T12:18:03;28.60;76.40
35246;DHT22;21379;50.962;6.960;2023-06-10T12:20:31;28.60;77.30
35246;DHT22;21379;50.962;6.960;2023-06-10T12:23:00;29.10;80.80
35246;DHT22;21379;50.962;6.960;2023-06-10T12:25:28;29.40;78.80
35246;DHT22;21379;50.962;6.960;2023-06-10T12:27:58;30.70;76.90
35246;DHT22;21379;50.962;6.960;2023-06-10T12:30:26;30.70;72.80
35246;DHT22;21379;50.962;6.960;2023-06-10T12:32:54;31.10;74.40
35246;DHT22;21379;50.962;6.960;2023-06-10T12:35:22;31.50;75.30
35246;DHT22;21379;50.962;6.960;2023-06-10T12:37:57;32.50;73.70
35246;DHT22;21379;50.962;6.960;2023-06-10T12:40:29;32.00;72.70
35246;DHT22;21379;50.962;6.960;2023-06-10T12:42:58;32.60;77.30
35246;DHT22;21379;50.962;6.960;2023-06-10T12:45:30;32.70;72.40
35246;DHT22;21379;50.962;6.960;2023-06-10T12:48:07;31.70;70.50
35246;DHT22;21379;50.962;6.960;2023-06-10T12:50:35;31.40;72.70
35246;DHT22;21379;50.962;6.960;2023-06-10T12:53:03;31.60;74.70
35246;DHT22;21379;50.962;6.960;2023-06-10T12:55:30;32.80;74.80
35246;DHT22;21379;50.962;6.960;2023-06-10T12:57:59;33.70;73.20
35246;DHT22;21379;50.962;6.960;2023-06-10T13:00:27;33.80;72.10
35246;DHT22;21379;50.962;6.960;2023-06-10T13:02:55;34.20;74.00
35246;DHT22;21379;50.962;6.960;2023-06-10T13:05:22;34.00;72.50
35246;DHT22;21379;50.962;6.960;2023-06-10T13:07:49;34.80;67.80
35246;DHT22;21379;50.962;6.960;2023-06-10T13:10:17;35.80;70.50
35246;DHT22;21379;50.962;6.960;2023-06-10T13:12:44;36.20;68.80
35246;DHT22;21379;50.962;6.960;2023-06-10T13:15:14;36.50;65.80
35246;DHT22;21379;50.962;6.960;2023-06-10T13:17:42;36.30;66.80
35246;DHT22;21379;50.962;6.960;2023-06-10T13:20:09;36.00;63.60
35246;DHT22;21379;50.962;6.960;2023-06-10T13:22:36;35.00;65.50
35246;DHT22;21379;50.962;6.960;2023-06-10T13:25:04;35.00;67.00
35246;DHT22;21379;50.962;6.960;2023-06-10T13:27:32;34.40;68.90
35246;DHT22;21379;50.962;6.960;2023-06-10T13:29:59;33.80;67.40
35246;DHT22;21379;50.962;6.960;2023-06-10T13:32:28;33.30;68.50
35246;DHT22;21379;50.962;6.960;2023-06-10T13:34:54;32.80;70.70
35246;DHT22;21379;50.962;6.960;2023-06-10T13:37:22;32.00;68.90
35246;DHT22;21379;50.962;6.960;2023-06-10T13:39:49;31.70;70.00
35246;DHT22;21379;50.962;6.960;2023-06-10T13:42:16;32.20;71.80
35246;DHT22;21379;50.962;6.960;2023-06-10T13:44:44;32.60;70.70
35246;DHT22;21379;50.962;6.960;2023-06-10T13:47:11;32.20;67.90
35246;DHT22;21379;50.962;6.960;2023-06-10T13:49:39;31.90;66.40
35246;DHT22;21379;50.962;6.960;2023-06-10T13:52:07;31.70;68.60
35246;DHT22;21379;50.962;6.960;2023-06-10T13:54:34;31.30;67.90
35246;DHT22;21379;50.962;6.960;2023-06-10T13:57:02;30.90;68.10
35246;DHT22;21379;50.962;6.960;2023-06-10T13:59:29;30.90;70.80
35246;DHT22;21379;50.962;6.960;2023-06-10T14:01:56;31.60;68.70
35246;DHT22;21379;50.962;6.960;2023-06-10T14:04:23;32.70;70.20
35246;DHT22;21379;50.962;6.960;2023-06-10T14:06:52;33.80;70.00
35246;DHT22;21379;50.962;6.960;2023-06-10T14:09:18;34.50;66.60
35246;DHT22;21379;50.962;6.960;2023-06-10T14:11:45;35.00;67.90
35246;DHT22;21379;50.962;6.960;2023-06-10T14:14:13;34.90;68.20
35246;DHT22;21379;50.962;6.960;2023-06-10T14:16:40;34.80;64.90
35246;DHT22;21379;50.962;6.960;2023-06-10T14:19:07;35.60;69.00
35246;DHT22;21379;50.962;6.960;2023-06-10T14:21:34;35.60;64.90
35246;DHT22;21379;50.962;6.960;2023-06-10T14:24:02;36.00;66.10
35246;DHT22;21379;50.962;6.960;2023-06-10T14:26:29;36.00;65.50
35246;DHT22;21379;50.962;6.960;2023-06-10T14:28:58;36.20;66.40
35246;DHT22;21379;50.962;6.960;2023-06-10T14:31:25;36.20;64.30
35246;DHT22;21379;50.962;6.960;2023-06-10T14:33:52;36.20;63.40
35246;DHT22;21379;50.962;6.960;2023-06-10T14:36:18;36.40;66.10
35246;DHT22;21379;50.962;6.960;2023-06-10T14:38:45;37.00;66.00
35246;DHT22;21379;50.962;6.960;2023-06-10T14:41:14;37.00;65.10
35246;DHT22;21379;50.962;6.960;2023-06-10T14:43:41;36.90;65.60
35246;DHT22;21379;50.962;6.960;2023-06-10T14:46:08;37.00;63.60
35246;DHT22;21379;50.962;6.960;2023-06-10T14:48:35;36.80;67.00
35246;DHT22;21379;50.962;6.960;2023-06-10T14:51:02;36.20;64.20
35246;DHT22;21379;50.962;6.960;2023-06-10T14:53:29;36.20;65.90
35246;DHT22;21379;50.962;6.960;2023-06-10T14:55:56;36.40;63.10
35246;DHT22;21379;50.962;6.960;2023-06-10T14:58:24;36.40;66.00
35246;DHT22;21379;50.962;6.960;2023-06-10T15:00:51;35.80;62.60
35246;DHT22;21379;50.962;6.960;2023-06-10T15:03:18;35.30;64.70
35246;DHT22;21379;50.962;6.960;2023-06-10T15:05:45;34.30;64.30
35246;DHT22;21379;50.962;6.960;2023-06-10T15:08:12;33.50;66.20
35246;DHT22;21379;50.962;6.960;2023-06-10T15:10:38;32.70;65.30
35246;DHT22;21379;50.962;6.960;2023-06-10T15:13:05;32.30;65.20
35246;DHT22;21379;50.962;6.960;2023-06-10T15:15:34;32.30;66.80
35246;DHT22;21379;50.962;6.960;2023-06-10T15:18:01;31.90;64.90
35246;DHT22;21379;50.962;6.960;2023-06-10T15:20:27;31.60;65.40
35246;DHT22;21379;50.962;6.960;2023-06-10T15:22:54;31.60;65.70
35246;DHT22;21379;50.962;6.960;2023-06-10T15:25:21;31.60;66.90
35246;DHT22;21379;50.962;6.960;2023-06-10T15:27:48;31.90;67.50
35246;DHT22;21379;50.962;6.960;2023-06-10T15:30:15;31.70;65.80
35246;DHT22;21379;50.962;6.960;2023-06-10T15:32:43;31.60;67.50
35246;DHT22;21379;50.962;6.960;2023-06-10T15:35:10;31.40;69.10
35246;DHT22;21379;50.962;6.960;2023-06-10T15:37:37;31.50;68.20